createdAt,value
2016-08-25T00:00:05.901Z,1010.92
2016-08-25T00:01:05.894Z,1010.97
2016-08-25T00:02:05.887Z,1010.93
2016-08-25T00:03:05.881Z,1010.96
2016-08-25T00:04:05.875Z,1010.92
2016-08-25T00:05:05.869Z,1010.96
2016-08-25T00:06:05.861Z,1010.96
2016-08-25T00:07:05.855Z,1010.91
2016-08-25T00:08:05.848Z,1010.95
2016-08-25T00:09:05.841Z,1010.95
2016-08-25T00:10:05.834Z,1010.92
2016-08-25T00:11:05.828Z,1010.94
2016-08-25T00:12:05.820Z,1010.94
2016-08-25T00:13:05.815Z,1010.89
2016-08-25T00:14:05.808Z,1010.92
2016-08-25T00:15:05.801Z,1010.91
2016-08-25T00:16:05.794Z,1010.93
2016-08-25T00:17:05.788Z,1010.89
2016-08-25T00:18:05.780Z,1010.92
2016-08-25T00:19:05.774Z,1010.92
2016-08-25T00:20:05.768Z,1010.89
2016-08-25T00:21:05.759Z,1010.92
2016-08-25T00:22:05.765Z,1010.93
2016-08-25T00:23:05.746Z,1010.93
2016-08-25T00:24:05.739Z,1010.93
2016-08-25T00:25:05.739Z,1010.92
2016-08-25T00:26:05.726Z,1010.92
2016-08-25T00:27:05.722Z,1010.91
2016-08-25T00:28:05.713Z,1010.91
2016-08-25T00:29:05.709Z,1010.86
2016-08-25T00:30:05.700Z,1010.9
2016-08-25T00:31:05.692Z,1010.87
2016-08-25T00:32:05.684Z,1010.87
2016-08-25T00:33:05.680Z,1010.88
2016-08-25T00:34:05.675Z,1010.86
2016-08-25T00:35:05.664Z,1010.85
2016-08-25T00:36:05.665Z,1010.84
2016-08-25T00:37:05.652Z,1010.85
2016-08-25T00:38:05.650Z,1010.84
2016-08-25T00:39:05.638Z,1010.83
2016-08-25T00:40:05.631Z,1010.81
2016-08-25T00:41:05.622Z,1010.86
2016-08-25T00:42:05.616Z,1010.86
2016-08-25T00:43:05.617Z,1010.83
2016-08-25T00:44:05.603Z,1010.86
2016-08-25T00:45:05.603Z,1010.82
2016-08-25T00:46:05.591Z,1010.84
2016-08-25T00:47:05.581Z,1010.88
2016-08-25T00:48:05.574Z,1010.87
2016-08-25T00:49:05.571Z,1010.9
2016-08-25T00:50:05.560Z,1010.89
2016-08-25T00:51:05.552Z,1010.9
2016-08-25T00:52:05.547Z,1010.9
2016-08-25T00:53:05.539Z,1010.87
2016-08-25T00:54:05.535Z,1010.89
2016-08-25T00:55:05.527Z,1010.89
2016-08-25T00:56:05.518Z,1010.88
2016-08-25T00:57:05.523Z,1010.9
2016-08-25T00:58:05.509Z,1010.88
2016-08-25T00:59:05.501Z,1010.9
2016-08-25T01:00:05.494Z,1010.91
2016-08-25T01:01:05.485Z,1010.87
2016-08-25T01:02:05.481Z,1010.85
2016-08-25T01:03:05.467Z,1010.89
2016-08-25T01:04:05.463Z,1010.93
2016-08-25T01:05:05.453Z,1010.88
2016-08-25T01:06:05.470Z,1010.89
2016-08-25T01:07:05.444Z,1010.9
2016-08-25T01:08:05.436Z,1010.91
2016-08-25T01:09:05.426Z,1010.88
2016-08-25T01:10:05.418Z,1010.88
2016-08-25T01:11:05.413Z,1010.91
2016-08-25T01:12:05.406Z,1010.91
2016-08-25T01:13:05.398Z,1010.86
2016-08-25T01:14:05.390Z,1010.86
2016-08-25T01:15:05.383Z,1010.87
2016-08-25T01:16:05.376Z,1010.88
2016-08-25T01:17:05.370Z,1010.87
2016-08-25T01:18:05.360Z,1010.88
2016-08-25T01:19:05.354Z,1010.87
2016-08-25T01:20:05.347Z,1010.87
2016-08-25T01:21:05.336Z,1010.88
2016-08-25T01:22:05.332Z,1010.85
2016-08-25T01:23:05.326Z,1010.87
2016-08-25T01:24:05.317Z,1010.87
2016-08-25T01:25:05.309Z,1010.86
2016-08-25T01:26:05.303Z,1010.86
2016-08-25T01:27:05.294Z,1010.84
2016-08-25T01:28:05.289Z,1010.88
2016-08-25T01:29:05.279Z,1010.87
2016-08-25T01:30:05.276Z,1010.85
2016-08-25T01:31:05.265Z,1010.91
2016-08-25T01:32:05.259Z,1010.86
2016-08-25T01:33:05.251Z,1010.87
2016-08-25T01:34:05.245Z,1010.89
2016-08-25T01:35:05.236Z,1010.89
2016-08-25T01:36:05.236Z,1010.87
2016-08-25T01:37:05.221Z,1010.84
2016-08-25T01:38:05.216Z,1010.85
2016-08-25T01:39:05.209Z,1010.86
2016-08-25T01:40:05.199Z,1010.85
2016-08-25T01:41:05.193Z,1010.86
2016-08-25T01:42:05.189Z,1010.83
2016-08-25T01:43:05.178Z,1010.84
2016-08-25T01:44:05.170Z,1010.82
2016-08-25T01:45:05.163Z,1010.86
2016-08-25T01:46:05.157Z,1010.88
2016-08-25T01:47:05.150Z,1010.86
2016-08-25T01:48:05.142Z,1010.86
2016-08-25T01:49:05.133Z,1010.87
2016-08-25T01:50:05.131Z,1010.88
2016-08-25T01:51:05.121Z,1010.83
2016-08-25T01:52:05.115Z,1010.85
2016-08-25T01:53:05.104Z,1010.91
2016-08-25T01:54:05.100Z,1010.92
2016-08-25T01:55:05.088Z,1010.89
2016-08-25T01:56:05.081Z,1010.87
2016-08-25T01:57:05.076Z,1010.91
2016-08-25T01:58:05.066Z,1010.88
2016-08-25T01:59:05.059Z,1010.86
2016-08-25T02:00:05.051Z,1010.86
2016-08-25T02:01:05.045Z,1010.89
2016-08-25T02:02:05.035Z,1010.91
2016-08-25T02:03:05.028Z,1010.92
2016-08-25T02:04:05.025Z,1010.84
2016-08-25T02:05:05.015Z,1010.87
2016-08-25T02:06:05.006Z,1010.91
2016-08-25T02:07:04.999Z,1010.87
2016-08-25T02:08:04.992Z,1010.9
2016-08-25T02:09:04.984Z,1010.89
2016-08-25T02:10:04.991Z,1010.93
2016-08-25T02:11:04.967Z,1010.9
2016-08-25T02:12:04.961Z,1010.88
2016-08-25T02:13:04.954Z,1010.87
2016-08-25T02:14:04.946Z,1010.87
2016-08-25T02:15:04.943Z,1010.89
2016-08-25T02:16:04.931Z,1010.93
2016-08-25T02:17:04.924Z,1010.93
2016-08-25T02:18:04.915Z,1010.94
2016-08-25T02:19:04.909Z,1010.93
2016-08-25T02:20:04.901Z,1010.91
2016-08-25T02:21:04.893Z,1010.92
2016-08-25T02:22:04.891Z,1010.96
2016-08-25T02:23:04.884Z,1010.91
2016-08-25T02:24:04.871Z,1010.89
2016-08-25T02:25:04.863Z,1010.89
2016-08-25T02:26:04.855Z,1010.88
2016-08-25T02:27:04.849Z,1010.94
2016-08-25T02:28:04.840Z,1010.94
2016-08-25T02:29:04.833Z,1010.88
2016-08-25T02:30:04.825Z,1010.88
2016-08-25T02:31:04.819Z,1010.87
2016-08-25T02:32:04.810Z,1010.85
2016-08-25T02:33:04.805Z,1010.86
2016-08-25T02:34:04.797Z,1010.8
2016-08-25T02:35:04.788Z,1010.8
2016-08-25T02:36:04.781Z,1010.81
2016-08-25T02:37:04.773Z,1010.79
2016-08-25T02:38:04.764Z,1010.84
2016-08-25T02:39:04.756Z,1010.81
2016-08-25T02:40:04.754Z,1010.8
2016-08-25T02:41:04.744Z,1010.83
2016-08-25T02:42:04.734Z,1010.83
2016-08-25T02:43:04.726Z,1010.9
2016-08-25T02:44:04.720Z,1010.87
2016-08-25T02:45:04.712Z,1010.85
2016-08-25T02:46:04.705Z,1010.82
2016-08-25T02:47:04.696Z,1010.85
2016-08-25T02:48:04.688Z,1010.83
2016-08-25T02:49:04.680Z,1010.83
2016-08-25T02:50:04.672Z,1010.86
2016-08-25T02:51:04.664Z,1010.82
2016-08-25T02:52:04.662Z,1010.78
2016-08-25T02:53:04.650Z,1010.81
2016-08-25T02:54:04.644Z,1010.79
2016-08-25T02:55:04.638Z,1010.76
2016-08-25T02:56:04.627Z,1010.79
2016-08-25T02:57:04.621Z,1010.77
2016-08-25T02:58:04.614Z,1010.75
2016-08-25T02:59:04.603Z,1010.75
2016-08-25T03:00:04.597Z,1010.73
2016-08-25T03:01:04.589Z,1010.73
2016-08-25T03:02:04.583Z,1010.73
2016-08-25T03:03:04.572Z,1010.75
2016-08-25T03:04:04.565Z,1010.79
2016-08-25T03:05:04.560Z,1010.74
2016-08-25T03:06:04.550Z,1010.78
2016-08-25T03:07:04.542Z,1010.73
2016-08-25T03:08:04.534Z,1010.79
2016-08-25T03:09:04.529Z,1010.77
2016-08-25T03:10:04.521Z,1010.82
2016-08-25T03:11:04.511Z,1010.76
2016-08-25T03:12:04.509Z,1010.75
2016-08-25T03:13:04.499Z,1010.75
2016-08-25T03:14:04.490Z,1010.79
2016-08-25T03:15:04.480Z,1010.78
2016-08-25T03:16:04.476Z,1010.75
2016-08-25T03:17:04.467Z,1010.72
2016-08-25T03:18:04.457Z,1010.75
2016-08-25T03:19:04.451Z,1010.73
2016-08-25T03:20:04.442Z,1010.75
2016-08-25T03:21:04.435Z,1010.71
2016-08-25T03:22:04.425Z,1010.73
2016-08-25T03:23:04.419Z,1010.73
2016-08-25T03:24:04.410Z,1010.69
2016-08-25T03:25:04.405Z,1010.72
2016-08-25T03:26:04.394Z,1010.75
2016-08-25T03:27:04.386Z,1010.72
2016-08-25T03:28:04.379Z,1010.74
2016-08-25T03:29:04.371Z,1010.71
2016-08-25T03:30:04.363Z,1010.7
2016-08-25T03:31:04.355Z,1010.71
2016-08-25T03:32:04.348Z,1010.71
2016-08-25T03:33:04.339Z,1010.71
2016-08-25T03:34:04.332Z,1010.68
2016-08-25T03:35:04.325Z,1010.69
2016-08-25T03:36:04.316Z,1010.66
2016-08-25T03:37:04.308Z,1010.65
2016-08-25T03:38:04.300Z,1010.65
2016-08-25T03:39:04.293Z,1010.65
2016-08-25T03:40:04.283Z,1010.64
2016-08-25T03:41:04.277Z,1010.66
2016-08-25T03:42:04.268Z,1010.64
2016-08-25T03:43:04.263Z,1010.66
2016-08-25T03:44:04.253Z,1010.63
2016-08-25T03:45:04.244Z,1010.64
2016-08-25T03:46:04.237Z,1010.65
2016-08-25T03:47:04.229Z,1010.67
2016-08-25T03:48:04.219Z,1010.66
2016-08-25T03:49:04.212Z,1010.68
2016-08-25T03:50:04.204Z,1010.64
2016-08-25T03:51:04.195Z,1010.63
2016-08-25T03:52:04.190Z,1010.65
2016-08-25T03:53:04.183Z,1010.61
2016-08-25T03:54:04.173Z,1010.6
2016-08-25T03:55:04.166Z,1010.61
2016-08-25T03:56:04.158Z,1010.57
2016-08-25T03:57:04.149Z,1010.56
2016-08-25T03:58:04.142Z,1010.54
2016-08-25T03:59:04.133Z,1010.55
2016-08-25T04:00:04.128Z,1010.52
2016-08-25T04:01:04.121Z,1010.54
2016-08-25T04:02:04.110Z,1010.5
2016-08-25T04:03:04.104Z,1010.55
2016-08-25T04:04:04.100Z,1010.52
2016-08-25T04:05:04.088Z,1010.5
2016-08-25T04:06:04.079Z,1010.55
2016-08-25T04:07:04.070Z,1010.51
2016-08-25T04:08:04.062Z,1010.5
2016-08-25T04:09:04.056Z,1010.51
2016-08-25T04:10:04.049Z,1010.52
2016-08-25T04:11:04.039Z,1010.51
2016-08-25T04:12:04.030Z,1010.51
2016-08-25T04:13:04.023Z,1010.51
2016-08-25T04:14:04.014Z,1010.55
2016-08-25T04:15:04.006Z,1010.55
2016-08-25T04:16:04.001Z,1010.52
2016-08-25T04:17:03.991Z,1010.51
2016-08-25T04:18:03.982Z,1010.52
2016-08-25T04:19:03.976Z,1010.49
2016-08-25T04:20:03.967Z,1010.5
2016-08-25T04:21:03.959Z,1010.51
2016-08-25T04:22:03.950Z,1010.48
2016-08-25T04:23:03.943Z,1010.47
2016-08-25T04:24:03.935Z,1010.53
2016-08-25T04:25:03.929Z,1010.53
2016-08-25T04:26:03.920Z,1010.49
2016-08-25T04:27:03.911Z,1010.51
2016-08-25T04:28:03.901Z,1010.51
2016-08-25T04:29:03.902Z,1010.51
2016-08-25T04:30:03.887Z,1010.49
2016-08-25T04:31:03.881Z,1010.53
2016-08-25T04:32:03.871Z,1010.58
2016-08-25T04:33:03.861Z,1010.6
2016-08-25T04:34:03.903Z,1010.59
2016-08-25T04:35:03.896Z,1010.59
2016-08-25T04:36:03.842Z,1010.61
2016-08-25T04:37:03.837Z,1010.59
2016-08-25T04:38:03.878Z,1010.59
2016-08-25T04:39:03.814Z,1010.56
2016-08-25T04:40:03.805Z,1010.51
2016-08-25T04:41:03.799Z,1010.53
2016-08-25T04:42:03.790Z,1010.52
2016-08-25T04:43:03.781Z,1010.53
2016-08-25T04:44:03.778Z,1010.5
2016-08-25T04:45:03.767Z,1010.53
2016-08-25T04:46:03.762Z,1010.54
2016-08-25T04:47:03.752Z,1010.55
2016-08-25T04:48:03.742Z,1010.55
2016-08-25T04:49:03.735Z,1010.54
2016-08-25T04:50:03.730Z,1010.57
2016-08-25T04:51:03.719Z,1010.59
2016-08-25T04:52:03.712Z,1010.56
2016-08-25T04:53:03.704Z,1010.58
2016-08-25T04:54:03.696Z,1010.55
2016-08-25T04:55:03.687Z,1010.58
2016-08-25T04:56:03.680Z,1010.55
2016-08-25T04:57:03.672Z,1010.54
2016-08-25T04:58:03.664Z,1010.55
2016-08-25T04:59:03.655Z,1010.56
2016-08-25T05:00:03.648Z,1010.56
2016-08-25T05:01:03.638Z,1010.51
2016-08-25T05:02:03.633Z,1010.54
2016-08-25T05:03:03.624Z,1010.55
2016-08-25T05:04:03.618Z,1010.51
2016-08-25T05:05:03.607Z,1010.5
2016-08-25T05:06:03.602Z,1010.48
2016-08-25T05:07:03.592Z,1010.5
2016-08-25T05:08:03.584Z,1010.5
2016-08-25T05:09:03.575Z,1010.5
2016-08-25T05:10:03.568Z,1010.5
2016-08-25T05:11:03.560Z,1010.49
2016-08-25T05:12:03.552Z,1010.48
2016-08-25T05:13:03.544Z,1010.48
2016-08-25T05:14:03.536Z,1010.47
2016-08-25T05:15:03.529Z,1010.44
2016-08-25T05:16:03.523Z,1010.42
2016-08-25T05:17:03.524Z,1010.42
2016-08-25T05:18:03.504Z,1010.43
2016-08-25T05:19:03.496Z,1010.43
2016-08-25T05:20:03.490Z,1010.47
2016-08-25T05:21:03.483Z,1010.43
2016-08-25T05:22:03.472Z,1010.44
2016-08-25T05:23:03.467Z,1010.44
2016-08-25T05:24:03.456Z,1010.46
2016-08-25T05:25:03.451Z,1010.44
2016-08-25T05:26:03.442Z,1010.45
2016-08-25T05:27:03.433Z,1010.44
2016-08-25T05:28:03.430Z,1010.47
2016-08-25T05:29:03.419Z,1010.46
2016-08-25T05:30:03.459Z,1010.49
2016-08-25T05:31:03.403Z,1010.51
2016-08-25T05:32:03.398Z,1010.52
2016-08-25T05:33:03.437Z,1010.54
2016-08-25T05:34:03.387Z,1010.53
2016-08-25T05:35:03.372Z,1010.51
2016-08-25T05:36:03.365Z,1010.51
2016-08-25T05:37:03.355Z,1010.47
2016-08-25T05:38:03.348Z,1010.5
2016-08-25T05:39:03.343Z,1010.48
2016-08-25T05:40:03.334Z,1010.51
2016-08-25T05:41:03.327Z,1010.5
2016-08-25T05:42:03.317Z,1010.51
2016-08-25T05:43:03.313Z,1010.49
2016-08-25T05:44:03.303Z,1010.48
2016-08-25T05:45:03.296Z,1010.48
2016-08-25T05:46:03.288Z,1010.48
2016-08-25T05:47:03.281Z,1010.46
2016-08-25T05:48:03.275Z,1010.5
2016-08-25T05:49:03.267Z,1010.47
2016-08-25T05:50:03.257Z,1010.52
2016-08-25T05:51:03.251Z,1010.48
2016-08-25T05:52:03.240Z,1010.49
2016-08-25T05:53:03.234Z,1010.49
2016-08-25T05:54:03.227Z,1010.46
2016-08-25T05:55:03.217Z,1010.49
2016-08-25T05:56:03.413Z,1010.48
2016-08-25T05:57:03.204Z,1010.43
2016-08-25T05:58:03.194Z,1010.47
2016-08-25T05:59:03.188Z,1010.43
2016-08-25T06:00:03.179Z,1010.46
2016-08-25T06:01:03.174Z,1010.49
2016-08-25T06:02:03.165Z,1010.47
2016-08-25T06:03:03.159Z,1010.47
2016-08-25T06:04:03.152Z,1010.45
2016-08-25T06:05:03.144Z,1010.46
2016-08-25T06:06:03.137Z,1010.46
2016-08-25T06:07:03.128Z,1010.44
2016-08-25T06:08:03.120Z,1010.43
2016-08-25T06:09:03.114Z,1010.38
2016-08-25T06:10:03.106Z,1010.37
2016-08-25T06:11:03.098Z,1010.34
2016-08-25T06:12:03.093Z,1010.4
2016-08-25T06:13:03.084Z,1010.35
2016-08-25T06:14:03.075Z,1010.38
2016-08-25T06:15:03.070Z,1010.34
2016-08-25T06:16:03.062Z,1010.35
2016-08-25T06:17:03.053Z,1010.36
2016-08-25T06:18:03.045Z,1010.31
2016-08-25T06:19:03.040Z,1010.38
2016-08-25T06:20:03.031Z,1010.31
2016-08-25T06:21:03.024Z,1010.31
2016-08-25T06:22:03.018Z,1010.35
2016-08-25T06:23:03.011Z,1010.33
2016-08-25T06:24:03.004Z,1010.31
2016-08-25T06:25:02.997Z,1010.34
2016-08-25T06:26:02.988Z,1010.35
2016-08-25T06:27:02.983Z,1010.35
2016-08-25T06:28:02.977Z,1010.3
2016-08-25T06:29:02.966Z,1010.33
2016-08-25T06:30:02.961Z,1010.32
2016-08-25T06:31:02.955Z,1010.33
2016-08-25T06:32:02.944Z,1010.34
2016-08-25T06:33:02.940Z,1010.34
2016-08-25T06:34:02.932Z,1010.37
2016-08-25T06:35:02.926Z,1010.35
2016-08-25T06:36:02.917Z,1010.34
2016-08-25T06:37:02.912Z,1010.35
2016-08-25T06:38:02.905Z,1010.33
2016-08-25T06:39:02.895Z,1010.35
2016-08-25T06:40:02.889Z,1010.44
2016-08-25T06:41:02.883Z,1010.42
2016-08-25T06:42:02.876Z,1010.42
2016-08-25T06:43:02.870Z,1010.44
2016-08-25T06:44:02.861Z,1010.44
2016-08-25T06:45:02.857Z,1010.47
2016-08-25T06:46:02.849Z,1010.46
2016-08-25T06:47:02.840Z,1010.48
2016-08-25T06:48:02.833Z,1010.52
2016-08-25T06:49:02.828Z,1010.54
2016-08-25T06:50:02.819Z,1010.53
2016-08-25T06:51:02.814Z,1010.51
2016-08-25T06:52:02.808Z,1010.52
2016-08-25T06:53:02.801Z,1010.53
2016-08-25T06:54:02.793Z,1010.52
2016-08-25T06:55:02.787Z,1010.54
2016-08-25T06:56:02.780Z,1010.53
2016-08-25T06:57:02.774Z,1010.52
2016-08-25T06:58:02.769Z,1010.5
2016-08-25T06:59:02.760Z,1010.55
2016-08-25T07:00:02.753Z,1010.53
2016-08-25T07:01:02.746Z,1010.52
2016-08-25T07:02:02.739Z,1010.5
2016-08-25T07:03:02.733Z,1010.47
2016-08-25T07:04:02.725Z,1010.47
2016-08-25T07:05:02.722Z,1010.49
2016-08-25T07:06:02.712Z,1010.5
2016-08-25T07:07:02.706Z,1010.5
2016-08-25T07:08:02.700Z,1010.46
2016-08-25T07:09:02.706Z,1010.46
2016-08-25T07:10:02.687Z,1010.51
2016-08-25T07:11:02.680Z,1010.53
2016-08-25T07:12:02.672Z,1010.54
2016-08-25T07:13:02.671Z,1010.49
2016-08-25T07:14:02.661Z,1010.52
2016-08-25T07:15:02.653Z,1010.51
2016-08-25T07:16:02.648Z,1010.53
2016-08-25T07:17:02.641Z,1010.5
2016-08-25T07:18:02.636Z,1010.52
2016-08-25T07:19:02.631Z,1010.49
2016-08-25T07:20:02.623Z,1010.49
2016-08-25T07:21:02.617Z,1010.51
2016-08-25T07:22:02.611Z,1010.48
2016-08-25T07:23:02.604Z,1010.49
2016-08-25T07:24:02.598Z,1010.5
2016-08-25T07:25:02.593Z,1010.51
2016-08-25T07:26:02.586Z,1010.46
2016-08-25T07:27:02.579Z,1010.47
2016-08-25T07:28:02.577Z,1010.39
2016-08-25T07:29:02.568Z,1010.39
2016-08-25T07:30:02.561Z,1010.43
2016-08-25T07:31:02.555Z,1010.41
2016-08-25T07:32:02.549Z,1010.41
2016-08-25T07:33:02.542Z,1010.37
2016-08-25T07:34:02.538Z,1010.38
2016-08-25T07:35:02.531Z,1010.38
2016-08-25T07:36:02.525Z,1010.39
2016-08-25T07:37:02.519Z,1010.36
2016-08-25T07:38:02.512Z,1010.36
2016-08-25T07:39:02.507Z,1010.35
2016-08-25T07:40:02.500Z,1010.36
2016-08-25T07:41:02.494Z,1010.36
2016-08-25T07:42:02.489Z,1010.32
2016-08-25T07:43:02.482Z,1010.34
2016-08-25T07:44:02.481Z,1010.31
2016-08-25T07:45:02.471Z,1010.31
2016-08-25T07:46:02.464Z,1010.28
2016-08-25T07:47:02.460Z,1010.28
2016-08-25T07:48:02.453Z,1010.23
2016-08-25T07:49:02.447Z,1010.26
2016-08-25T07:50:02.442Z,1010.25
2016-08-25T07:51:02.437Z,1010.23
2016-08-25T07:52:02.430Z,1010.21
2016-08-25T07:53:02.429Z,1010.22
2016-08-25T07:54:02.419Z,1010.25
2016-08-25T07:55:02.414Z,1010.23
2016-08-25T07:56:02.612Z,1010.22
2016-08-25T07:57:02.401Z,1010.2
2016-08-25T07:58:02.396Z,1010.24
2016-08-25T07:59:02.390Z,1010.22
2016-08-25T08:00:02.384Z,1010.2
2016-08-25T08:01:02.379Z,1010.15
2016-08-25T08:02:02.373Z,1010.22
2016-08-25T08:03:02.368Z,1010.17
2016-08-25T08:04:02.363Z,1010.19
2016-08-25T08:05:02.356Z,1010.2
2016-08-25T08:06:02.352Z,1010.2
2016-08-25T08:07:02.344Z,1010.17
2016-08-25T08:08:02.342Z,1010.22
2016-08-25T08:09:02.334Z,1010.18
2016-08-25T08:10:02.329Z,1010.18
2016-08-25T08:11:02.324Z,1010.15
2016-08-25T08:12:02.318Z,1010.09
2016-08-25T08:13:02.313Z,1010.1
2016-08-25T08:14:02.306Z,1010.16
2016-08-25T08:15:02.301Z,1010.19
2016-08-25T08:16:02.295Z,1010.15
2016-08-25T08:17:02.291Z,1010.16
2016-08-25T08:18:02.286Z,1010.16
2016-08-25T08:19:02.280Z,1010.14
2016-08-25T08:20:02.278Z,1010.13
2016-08-25T08:21:02.274Z,1010.17
2016-08-25T08:22:02.267Z,1010.12
2016-08-25T08:23:02.264Z,1010.11
2016-08-25T08:24:02.259Z,1010.11
2016-08-25T08:25:02.262Z,1010.15
2016-08-25T08:26:02.251Z,1010.11
2016-08-25T08:27:02.247Z,1010.11
2016-08-25T08:28:02.242Z,1010.1
2016-08-25T08:29:02.240Z,1010.05
2016-08-25T08:30:02.233Z,1010.05
2016-08-25T08:31:02.229Z,1010.05
2016-08-25T08:32:02.226Z,1010.05
2016-08-25T08:33:02.222Z,1010.07
2016-08-25T08:34:02.216Z,1010.1
2016-08-25T08:35:02.213Z,1010.03
2016-08-25T08:36:02.211Z,1010.04
2016-08-25T08:37:02.209Z,1010.06
2016-08-25T08:38:02.202Z,1010.06
2016-08-25T08:39:02.199Z,1010.07
2016-08-25T08:40:02.195Z,1010.08
2016-08-25T08:41:02.191Z,1010.04
2016-08-25T08:42:02.190Z,1010.02
2016-08-25T08:43:02.185Z,1010.02
2016-08-25T08:44:02.180Z,1010.05
2016-08-25T08:45:02.177Z,1009.99
2016-08-25T08:46:02.173Z,1010.06
2016-08-25T08:47:02.171Z,1010.03
2016-08-25T08:48:02.167Z,1010.06
2016-08-25T08:49:02.171Z,1010.04
2016-08-25T08:50:02.162Z,1009.98
2016-08-25T08:51:02.158Z,1009.97
2016-08-25T08:52:02.152Z,1009.95
2016-08-25T08:53:02.148Z,1009.93
2016-08-25T08:54:02.146Z,1009.97
2016-08-25T08:55:02.191Z,1009.97
2016-08-25T08:56:02.137Z,1010.01
2016-08-25T08:57:02.134Z,1010.01
2016-08-25T08:58:02.129Z,1010
2016-08-25T08:59:02.124Z,1009.97
2016-08-25T09:00:02.120Z,1009.93
2016-08-25T09:01:02.118Z,1009.93
2016-08-25T09:02:02.114Z,1009.94
2016-08-25T09:03:02.110Z,1009.93
2016-08-25T09:04:02.107Z,1009.9
2016-08-25T09:05:02.101Z,1009.91
2016-08-25T09:06:02.096Z,1009.87
2016-08-25T09:07:02.096Z,1009.86
2016-08-25T09:08:02.091Z,1009.87
2016-08-25T09:09:02.085Z,1009.9
2016-08-25T09:10:02.083Z,1009.85
2016-08-25T09:11:02.078Z,1009.84
2016-08-25T09:12:02.075Z,1009.84
2016-08-25T09:13:02.071Z,1009.79
2016-08-25T09:14:02.067Z,1009.76
2016-08-25T09:15:02.077Z,1009.74
2016-08-25T09:16:02.062Z,1009.72
2016-08-25T09:17:02.054Z,1009.69
2016-08-25T09:18:02.049Z,1009.73
2016-08-25T09:19:02.048Z,1009.68
2016-08-25T09:20:02.042Z,1009.65
2016-08-25T09:21:02.270Z,1009.57
2016-08-25T09:22:02.034Z,1009.58
2016-08-25T09:23:02.032Z,1009.65
2016-08-25T09:24:02.027Z,1009.61
2016-08-25T09:25:02.030Z,1009.6
2016-08-25T09:26:02.019Z,1009.54
2016-08-25T09:27:02.017Z,1009.53
2016-08-25T09:28:02.010Z,1009.54
2016-08-25T09:29:02.064Z,1009.5
2016-08-25T09:30:02.004Z,1009.54
2016-08-25T09:31:01.998Z,1009.47
2016-08-25T09:32:01.994Z,1009.49
2016-08-25T09:33:01.990Z,1009.48
2016-08-25T09:34:01.990Z,1009.45
2016-08-25T09:35:01.989Z,1009.43
2016-08-25T09:36:01.981Z,1009.44
2016-08-25T09:37:01.974Z,1009.42
2016-08-25T09:38:01.968Z,1009.43
2016-08-25T09:39:01.967Z,1009.4
2016-08-25T09:40:01.961Z,1009.43
2016-08-25T09:41:01.956Z,1009.42
2016-08-25T09:42:01.953Z,1009.41
2016-08-25T09:43:01.949Z,1009.39
2016-08-25T09:44:01.945Z,1009.4
2016-08-25T09:45:01.943Z,1009.38
2016-08-25T09:46:01.943Z,1009.36
2016-08-25T09:47:01.939Z,1009.32
2016-08-25T09:48:01.928Z,1009.33
2016-08-25T09:49:01.924Z,1009.3
2016-08-25T09:50:01.919Z,1009.37
2016-08-25T09:51:01.915Z,1009.29
2016-08-25T09:52:01.912Z,1009.28
2016-08-25T09:53:01.908Z,1009.3
2016-08-25T09:54:01.905Z,1009.3
2016-08-25T09:55:01.898Z,1009.25
2016-08-25T09:56:02.095Z,1009.28
2016-08-25T09:57:01.890Z,1009.24
2016-08-25T09:58:01.885Z,1009.27
2016-08-25T09:59:01.882Z,1009.26
2016-08-25T10:00:01.877Z,1009.28
2016-08-25T10:01:01.873Z,1009.26
2016-08-25T10:02:01.869Z,1009.26
2016-08-25T10:03:01.863Z,1009.29
2016-08-25T10:04:01.858Z,1009.25
2016-08-25T10:05:01.856Z,1009.24
2016-08-25T10:06:01.852Z,1009.24
2016-08-25T10:07:01.851Z,1009.21
2016-08-25T10:08:01.842Z,1009.18
2016-08-25T10:09:01.839Z,1009.22
2016-08-25T10:10:01.834Z,1009.19
2016-08-25T10:11:01.829Z,1009.26
2016-08-25T10:12:01.825Z,1009.22
2016-08-25T10:13:01.837Z,1009.22
2016-08-25T10:14:01.815Z,1009.2
2016-08-25T10:15:01.814Z,1009.21
2016-08-25T10:16:01.808Z,1009.24
2016-08-25T10:17:01.805Z,1009.22
2016-08-25T10:18:01.801Z,1009.21
2016-08-25T10:19:01.846Z,1009.21
2016-08-25T10:20:01.791Z,1009.24
2016-08-25T10:21:01.788Z,1009.16
2016-08-25T10:22:01.783Z,1009.2
2016-08-25T10:23:01.778Z,1009.2
2016-08-25T10:24:01.775Z,1009.2
2016-08-25T10:25:01.771Z,1009.21
2016-08-25T10:26:01.770Z,1009.19
2016-08-25T10:27:01.763Z,1009.18
2016-08-25T10:28:01.760Z,1009.17
2016-08-25T10:29:01.763Z,1009.12
2016-08-25T10:30:01.752Z,1009.14
2016-08-25T10:31:01.746Z,1009.12
2016-08-25T10:32:01.743Z,1009.08
2016-08-25T10:33:01.738Z,1009.09
2016-08-25T10:34:01.735Z,1009.11
2016-08-25T10:35:01.732Z,1009.12
2016-08-25T10:36:01.727Z,1009.12
2016-08-25T10:37:01.724Z,1009.11
2016-08-25T10:38:01.741Z,1009.08
2016-08-25T10:39:01.723Z,1009.11
2016-08-25T10:40:01.711Z,1009.04
2016-08-25T10:41:01.756Z,1009.05
2016-08-25T10:42:01.705Z,1009.07
2016-08-25T10:43:01.702Z,1009
2016-08-25T10:44:01.696Z,1008.98
2016-08-25T10:45:01.695Z,1008.99
2016-08-25T10:46:01.689Z,1009.05
2016-08-25T10:47:01.690Z,1008.98
2016-08-25T10:48:01.685Z,1008.99
2016-08-25T10:49:01.680Z,1008.98
2016-08-25T10:50:01.676Z,1008.99
2016-08-25T10:51:01.672Z,1008.95
2016-08-25T10:52:01.668Z,1008.95
2016-08-25T10:53:01.667Z,1008.97
2016-08-25T10:54:01.663Z,1009.02
2016-08-25T10:55:01.660Z,1009.01
2016-08-25T10:56:01.657Z,1009.02
2016-08-25T10:57:01.654Z,1009.05
2016-08-25T10:58:01.653Z,1009.04
2016-08-25T10:59:01.648Z,1009.04
2016-08-25T11:00:01.646Z,1009.02
2016-08-25T11:01:01.646Z,1008.95
2016-08-25T11:02:01.643Z,1008.99
2016-08-25T11:03:01.643Z,1008.94
2016-08-25T11:04:01.641Z,1008.9
2016-08-25T11:05:01.638Z,1008.9
2016-08-25T11:06:01.637Z,1008.88
2016-08-25T11:07:01.637Z,1008.93
2016-08-25T11:08:01.637Z,1008.95
2016-08-25T11:09:01.636Z,1008.91
2016-08-25T11:10:01.634Z,1008.91
2016-08-25T11:11:01.634Z,1008.86
2016-08-25T11:12:01.636Z,1008.89
2016-08-25T11:13:01.635Z,1008.86
2016-08-25T11:14:01.637Z,1008.9
2016-08-25T11:15:01.638Z,1008.9
2016-08-25T11:16:01.640Z,1008.88
2016-08-25T11:17:01.640Z,1008.87
2016-08-25T11:18:01.644Z,1008.87
2016-08-25T11:19:01.647Z,1008.82
2016-08-25T11:20:01.648Z,1008.83
2016-08-25T11:21:01.651Z,1008.88
2016-08-25T11:22:01.655Z,1008.84
2016-08-25T11:23:01.659Z,1008.82
2016-08-25T11:24:01.661Z,1008.86
2016-08-25T11:25:01.666Z,1008.84
2016-08-25T11:26:01.670Z,1008.84
2016-08-25T11:27:01.689Z,1008.87
2016-08-25T11:28:01.682Z,1008.82
2016-08-25T11:29:01.687Z,1008.8
2016-08-25T11:30:01.688Z,1008.85
2016-08-25T11:31:01.692Z,1008.81
2016-08-25T11:32:01.696Z,1008.82
2016-08-25T11:33:01.701Z,1008.84
2016-08-25T11:34:01.708Z,1008.87
2016-08-25T11:35:01.716Z,1008.86
2016-08-25T11:36:01.719Z,1008.87
2016-08-25T11:37:01.731Z,1008.86
2016-08-25T11:38:01.731Z,1008.86
2016-08-25T11:39:01.736Z,1008.85
2016-08-25T11:40:01.747Z,1008.86
2016-08-25T11:41:01.749Z,1008.83
2016-08-25T11:42:01.753Z,1008.82
2016-08-25T11:43:01.764Z,1008.82
2016-08-25T11:44:01.770Z,1008.8
2016-08-25T11:46:01.783Z,1008.77
2016-08-25T11:47:01.789Z,1008.74
2016-08-25T11:48:01.796Z,1008.71
2016-08-25T11:49:01.804Z,1008.7
2016-08-25T11:50:01.820Z,1008.69
2016-08-25T11:51:01.819Z,1008.68
2016-08-25T11:52:01.833Z,1008.64
2016-08-25T11:53:01.841Z,1008.66
2016-08-25T11:54:01.848Z,1008.62
2016-08-25T11:55:01.851Z,1008.67
2016-08-25T11:56:02.067Z,1008.64
2016-08-25T11:57:01.868Z,1008.67
2016-08-25T11:58:01.877Z,1008.61
2016-08-25T11:59:01.885Z,1008.61
2016-08-25T12:00:01.894Z,1008.63
2016-08-25T12:01:01.902Z,1008.64
2016-08-25T12:02:01.912Z,1008.66
2016-08-25T12:03:01.919Z,1008.62
2016-08-25T12:04:01.928Z,1008.63
2016-08-25T12:05:01.938Z,1008.61
2016-08-25T12:06:01.952Z,1008.61
2016-08-25T12:07:01.959Z,1008.63
2016-08-25T12:08:01.965Z,1008.62